Dallas, Georgia
Current Conditions -  °F | °C
As of 6:15 PM on Saturday 25 Oct 2014 (Local Time) from KPUJ Reporting Station
Clear Clear  
Wind Chill: 70°   Ceiling: Unl
Heat Index: 70°   Visibility: 10mi
Dew Point: 55°   Wind: 3mph
Humidity: 60%   Direction: 290°WNW
Pressure: 30.05"   Gusts: NA
Location:  33.92°N, 84.83°W
Report Text: KPUJ 252215Z AUTO 29003KT 10SM CLR 21/13 A3005 RMK AO2
Loading
Personal Weather Stations






























Interactive Weather Map
Tropical Storm Tracking
New forecast layout! Learn more

10-Day Weather Forecast

Advertisements
Track Severe Weather on mobile